createdAt,value
2022-08-24T00:00:36.824Z,99.90
2022-08-24T00:03:03.624Z,99.90
2022-08-24T00:05:30.522Z,99.90
2022-08-24T00:07:57.372Z,99.90
2022-08-24T00:10:26.480Z,99.90
2022-08-24T00:12:53.504Z,99.90
2022-08-24T00:15:20.552Z,99.90
2022-08-24T00:17:47.240Z,99.90
2022-08-24T00:20:14.454Z,99.90
2022-08-24T00:22:41.848Z,99.90
2022-08-24T00:25:11.552Z,99.90
2022-08-24T00:27:39.787Z,99.90
2022-08-24T00:30:08.785Z,99.90
2022-08-24T00:32:37.646Z,99.90
2022-08-24T00:35:06.221Z,99.90
2022-08-24T00:37:33.744Z,99.90
2022-08-24T00:40:00.467Z,99.90
2022-08-24T00:42:27.633Z,99.90
2022-08-24T00:44:54.312Z,99.90
2022-08-24T00:47:47.645Z,99.90
2022-08-24T00:50:22.034Z,99.90
2022-08-24T00:52:57.940Z,99.90
2022-08-24T00:55:32.461Z,99.90
2022-08-24T00:58:07.981Z,99.90
2022-08-24T01:00:43.402Z,99.90
2022-08-24T01:03:16.402Z,99.90
2022-08-24T01:05:43.894Z,99.90
2022-08-24T01:08:13.262Z,99.90
2022-08-24T01:10:55.067Z,99.90
2022-08-24T01:13:22.962Z,99.90
2022-08-24T01:15:52.563Z,99.90
2022-08-24T01:18:41.932Z,99.90
2022-08-24T01:21:16.777Z,99.90
2022-08-24T01:23:48.488Z,99.90
2022-08-24T01:26:32.940Z,99.90
2022-08-24T01:29:26.002Z,99.90
2022-08-24T01:31:53.638Z,99.90
2022-08-24T01:34:21.482Z,99.90
2022-08-24T01:36:51.488Z,99.90
2022-08-24T01:39:43.831Z,99.90
2022-08-24T01:42:11.790Z,99.90
2022-08-24T01:44:40.035Z,99.90
2022-08-24T01:47:08.947Z,99.90
2022-08-24T01:49:40.093Z,99.90
2022-08-24T01:52:09.697Z,99.90
2022-08-24T01:54:36.388Z,99.90
2022-08-24T01:57:03.898Z,99.90
2022-08-24T01:59:30.674Z,99.90
2022-08-24T02:02:04.438Z,99.90
2022-08-24T02:04:34.082Z,99.90
2022-08-24T02:07:00.705Z,99.90
2022-08-24T02:09:27.982Z,99.90
2022-08-24T02:11:59.929Z,99.90
2022-08-24T02:14:28.391Z,99.90
2022-08-24T02:16:57.613Z,99.90
2022-08-24T02:19:27.157Z,99.90
2022-08-24T02:21:53.963Z,99.90
2022-08-24T02:24:21.102Z,99.90
2022-08-24T02:26:49.113Z,99.90
2022-08-24T02:29:16.653Z,99.90
2022-08-24T02:31:43.802Z,99.90
2022-08-24T02:34:10.574Z,99.90
2022-08-24T02:36:38.680Z,99.90
2022-08-24T02:39:06.754Z,99.90
2022-08-24T02:41:34.506Z,99.90
2022-08-24T02:44:01.262Z,99.90
2022-08-24T02:46:30.235Z,99.90
2022-08-24T02:49:10.498Z,99.90
2022-08-24T02:51:44.368Z,99.90
2022-08-24T02:54:13.192Z,99.90
2022-08-24T02:56:39.812Z,99.90
2022-08-24T02:59:06.934Z,99.90
2022-08-24T03:01:33.775Z,99.90
2022-08-24T03:04:00.559Z,99.90
2022-08-24T03:06:27.331Z,99.90
2022-08-24T03:08:56.133Z,99.90
2022-08-24T03:11:27.739Z,99.90
2022-08-24T03:13:56.224Z,99.90
2022-08-24T03:16:22.965Z,99.90
2022-08-24T03:18:49.869Z,99.90
2022-08-24T03:21:17.223Z,99.90
2022-08-24T03:23:44.078Z,99.90
2022-08-24T03:26:11.550Z,99.90
2022-08-24T03:28:38.366Z,99.90
2022-08-24T03:31:05.254Z,99.90
2022-08-24T03:33:32.407Z,99.90
2022-08-24T03:35:59.605Z,99.90
2022-08-24T03:38:26.269Z,99.90
2022-08-24T03:40:53.111Z,99.90
2022-08-24T03:43:38.332Z,99.90
2022-08-24T03:46:07.766Z,99.90
2022-08-24T03:48:35.678Z,99.90
2022-08-24T03:51:02.641Z,99.90
2022-08-24T03:53:29.309Z,99.90
2022-08-24T03:55:56.023Z,99.90
2022-08-24T03:58:22.660Z,99.90
2022-08-24T04:00:49.867Z,99.90
2022-08-24T04:03:16.708Z,99.90
2022-08-24T04:05:43.511Z,99.90
2022-08-24T04:08:11.197Z,99.90
2022-08-24T04:10:43.486Z,99.90
2022-08-24T04:13:10.157Z,99.90
2022-08-24T04:15:40.683Z,99.90
2022-08-24T04:18:07.515Z,99.90
2022-08-24T04:20:39.923Z,99.90
2022-08-24T04:23:08.213Z,99.90
2022-08-24T04:25:45.512Z,99.90
2022-08-24T04:28:14.611Z,99.90
2022-08-24T04:30:43.346Z,99.90
2022-08-24T04:33:11.892Z,99.90
2022-08-24T04:35:45.295Z,99.90
2022-08-24T04:38:12.107Z,99.90
2022-08-24T04:40:41.001Z,99.90
2022-08-24T04:43:08.572Z,99.90
2022-08-24T04:45:40.886Z,99.90
2022-08-24T04:48:08.267Z,99.90
2022-08-24T04:50:36.383Z,99.90
2022-08-24T04:53:04.713Z,99.90
2022-08-24T04:55:32.445Z,99.90
2022-08-24T04:57:59.174Z,99.90
2022-08-24T05:00:25.949Z,99.90
2022-08-24T05:02:52.843Z,99.90
2022-08-24T05:05:19.548Z,99.90
2022-08-24T05:07:46.320Z,99.90
2022-08-24T05:10:14.109Z,99.90
2022-08-24T05:12:43.064Z,99.90
2022-08-24T05:15:10.180Z,99.90
2022-08-24T05:17:37.012Z,99.90
2022-08-24T05:20:04.589Z,99.90
2022-08-24T05:22:31.236Z,99.90
2022-08-24T05:24:59.237Z,99.90
2022-08-24T05:27:26.033Z,99.90
2022-08-24T05:29:54.067Z,99.90
2022-08-24T05:32:20.851Z,99.90
2022-08-24T05:34:47.658Z,99.90
2022-08-24T05:37:14.515Z,99.90
2022-08-24T05:39:41.471Z,99.90
2022-08-24T05:42:08.863Z,99.90
2022-08-24T05:44:35.558Z,99.90
2022-08-24T05:47:02.893Z,99.90
2022-08-24T05:49:29.695Z,99.90
2022-08-24T05:51:56.486Z,99.90
2022-08-24T05:54:25.135Z,99.90
2022-08-24T05:56:51.972Z,99.90
2022-08-24T05:59:19.699Z,99.90
2022-08-24T06:01:46.690Z,99.90
2022-08-24T06:04:13.947Z,99.90
2022-08-24T06:06:40.685Z,99.90
2022-08-24T06:09:07.385Z,99.90
2022-08-24T06:11:37.614Z,99.90
2022-08-24T06:14:09.511Z,99.90
2022-08-24T06:16:41.154Z,99.90
2022-08-24T06:19:10.591Z,99.90
2022-08-24T06:21:37.971Z,99.90
2022-08-24T06:24:06.413Z,99.90
2022-08-24T06:26:52.183Z,99.90
2022-08-24T06:29:20.119Z,99.90
2022-08-24T06:31:48.592Z,99.90
2022-08-24T06:34:22.627Z,99.90
2022-08-24T06:36:49.355Z,99.90
2022-08-24T06:39:16.338Z,99.90
2022-08-24T06:41:44.325Z,99.90
2022-08-24T06:44:11.208Z,99.90
2022-08-24T06:46:38.215Z,99.90
2022-08-24T06:49:05.565Z,99.90
2022-08-24T06:51:32.554Z,99.90
2022-08-24T06:53:59.391Z,99.90
2022-08-24T06:56:26.275Z,99.90
2022-08-24T06:58:52.988Z,99.90
2022-08-24T07:01:22.934Z,99.90
2022-08-24T07:03:50.264Z,99.90
2022-08-24T07:06:18.119Z,99.90
2022-08-24T07:08:45.073Z,99.90
2022-08-24T07:11:14.679Z,99.90
2022-08-24T07:13:42.352Z,99.90
2022-08-24T07:16:12.223Z,99.90
2022-08-24T07:18:41.248Z,99.90
2022-08-24T07:21:10.254Z,99.90
2022-08-24T07:23:41.898Z,99.90
2022-08-24T07:26:20.894Z,99.90
2022-08-24T07:29:01.196Z,99.90
2022-08-24T07:31:30.065Z,99.90
2022-08-24T07:34:00.103Z,99.90
2022-08-24T07:36:28.482Z,99.90
2022-08-24T07:38:56.251Z,99.90
2022-08-24T07:44:15.874Z,99.90
2022-08-24T07:46:43.052Z,99.90
2022-08-24T07:49:31.645Z,99.90
2022-08-24T07:51:58.706Z,99.90
2022-08-24T07:54:25.717Z,99.90
2022-08-24T07:56:52.498Z,99.90
2022-08-24T07:59:19.182Z,99.90
2022-08-24T08:01:46.235Z,99.90
2022-08-24T08:04:14.153Z,99.90
2022-08-24T08:06:41.992Z,98.70
2022-08-24T08:09:08.697Z,98.00
2022-08-24T08:11:35.408Z,97.30
2022-08-24T08:14:02.167Z,97.00
2022-08-24T08:16:28.924Z,94.10
2022-08-24T08:19:11.487Z,93.70
2022-08-24T08:22:02.386Z,93.60
2022-08-24T08:24:29.142Z,92.30
2022-08-24T08:26:57.598Z,91.50
2022-08-24T08:29:25.449Z,90.50
2022-08-24T08:31:52.408Z,91.50
2022-08-24T08:34:19.732Z,91.20
2022-08-24T08:36:47.046Z,89.50
2022-08-24T08:39:15.903Z,92.00
2022-08-24T08:42:02.022Z,88.20
2022-08-24T08:44:50.685Z,96.20
2022-08-24T08:47:44.528Z,90.60
2022-08-24T08:50:27.560Z,91.60
2022-08-24T08:52:57.422Z,92.20
2022-08-24T08:55:39.765Z,83.70
2022-08-24T08:58:06.689Z,87.10
2022-08-24T09:01:13.435Z,85.90
2022-08-24T09:04:04.465Z,84.00
2022-08-24T09:06:35.670Z,96.50
2022-08-24T09:09:25.302Z,93.00
2022-08-24T09:12:00.161Z,91.00
2022-08-24T09:14:35.971Z,80.90
2022-08-24T09:17:02.807Z,72.20
2022-08-24T09:20:06.709Z,84.20
2022-08-24T09:22:39.868Z,88.50
2022-08-24T09:25:57.676Z,87.10
2022-08-24T09:28:34.627Z,92.10
2022-08-24T09:34:04.162Z,80.30
2022-08-24T09:36:51.986Z,70.90
2022-08-24T09:39:34.868Z,76.20
2022-08-24T09:42:50.741Z,83.30
2022-08-24T09:45:48.406Z,90.50
2022-08-24T09:48:24.550Z,92.20
2022-08-24T09:51:15.585Z,82.00
2022-08-24T09:54:04.135Z,88.70
2022-08-24T09:57:11.563Z,83.30
2022-08-24T10:00:18.651Z,70.30
2022-08-24T10:03:13.630Z,62.20
2022-08-24T10:06:08.588Z,89.90
2022-08-24T10:08:51.196Z,88.10
2022-08-24T10:11:34.886Z,87.10
2022-08-24T10:14:39.497Z,84.00
2022-08-24T10:17:37.592Z,83.60
2022-08-24T10:20:26.301Z,85.80
2022-08-24T10:23:14.940Z,86.60
2022-08-24T10:26:03.166Z,87.30
2022-08-24T10:29:17.619Z,87.60
2022-08-24T10:31:55.945Z,89.50
2022-08-24T10:34:46.562Z,77.80
2022-08-24T10:37:34.301Z,74.60
2022-08-24T10:40:34.512Z,75.90
2022-08-24T10:43:36.095Z,82.70
2022-08-24T10:46:34.812Z,81.50
2022-08-24T10:49:32.461Z,88.50
2022-08-24T10:52:08.540Z,82.30
2022-08-24T10:54:36.506Z,84.70
2022-08-24T10:57:12.243Z,67.20
2022-08-24T11:00:18.219Z,85.20
2022-08-24T11:03:04.753Z,76.10
2022-08-24T11:05:55.257Z,80.80
2022-08-24T11:08:21.928Z,85.50
2022-08-24T11:11:04.762Z,82.40
2022-08-24T11:13:31.450Z,85.10
2022-08-24T11:16:01.386Z,88.60
2022-08-24T11:18:49.371Z,81.80
2022-08-24T11:21:53.627Z,78.00
2022-08-24T11:24:41.515Z,77.70
2022-08-24T11:27:32.841Z,84.30
2022-08-24T11:30:05.125Z,76.40
2022-08-24T11:32:43.576Z,75.60
2022-08-24T11:35:17.478Z,86.60
2022-08-24T11:37:46.727Z,83.00
2022-08-24T11:40:14.870Z,79.40
2022-08-24T11:43:07.487Z,80.70
2022-08-24T11:46:04.297Z,87.50
2022-08-24T11:48:50.063Z,84.70
2022-08-24T11:51:29.130Z,71.60
2022-08-24T11:54:34.291Z,84.00
2022-08-24T11:57:09.246Z,86.70
2022-08-24T12:00:10.487Z,85.90
2022-08-24T12:02:54.306Z,80.90
2022-08-24T12:05:25.517Z,81.70
2022-08-24T12:08:26.081Z,89.30
2022-08-24T12:10:52.703Z,84.40
2022-08-24T12:13:38.118Z,88.50
2022-08-24T12:16:44.206Z,76.10
2022-08-24T12:19:33.317Z,81.60
2022-08-24T12:22:05.912Z,88.00
2022-08-24T12:24:49.257Z,78.40
2022-08-24T12:27:26.633Z,73.40
2022-08-24T12:30:05.642Z,77.60
2022-08-24T12:32:57.846Z,79.60
2022-08-24T12:35:45.312Z,72.30
2022-08-24T12:38:28.457Z,71.00
2022-08-24T12:41:28.076Z,81.40
2022-08-24T12:44:09.637Z,82.80
2022-08-24T12:46:37.415Z,69.30
2022-08-24T12:49:25.548Z,77.30
2022-08-24T12:52:13.497Z,78.60
2022-08-24T12:55:01.003Z,85.10
2022-08-24T12:57:39.625Z,86.40
2022-08-24T13:00:16.290Z,82.50
2022-08-24T13:02:47.913Z,88.00
2022-08-24T13:05:20.068Z,73.70
2022-08-24T13:07:50.403Z,87.30
2022-08-24T13:10:23.482Z,82.30
2022-08-24T13:13:10.289Z,88.00
2022-08-24T13:15:37.579Z,83.50
2022-08-24T13:18:10.984Z,84.00
2022-08-24T13:20:44.357Z,86.00
2022-08-24T13:23:11.079Z,78.20
2022-08-24T13:25:58.011Z,73.00
2022-08-24T13:28:24.583Z,84.40
2022-08-24T13:31:06.508Z,69.60
2022-08-24T13:33:49.972Z,71.20
2022-08-24T13:36:32.422Z,79.70
2022-08-24T13:39:37.111Z,76.30
2022-08-24T13:42:31.322Z,88.10
2022-08-24T13:45:12.583Z,77.90
2022-08-24T13:47:59.920Z,75.40
2022-08-24T13:50:56.602Z,79.10
2022-08-24T13:54:01.072Z,63.50
2022-08-24T13:56:39.029Z,62.70
2022-08-24T13:59:33.224Z,57.10
2022-08-24T14:02:14.770Z,83.10
2022-08-24T14:05:09.201Z,80.50
2022-08-24T14:07:56.397Z,73.50
2022-08-24T14:10:32.233Z,82.80
2022-08-24T14:13:26.865Z,79.90
2022-08-24T14:16:23.647Z,79.90
2022-08-24T14:19:14.140Z,63.10
2022-08-24T14:22:00.883Z,83.10
2022-08-24T14:24:46.374Z,62.30
2022-08-24T14:27:37.386Z,70.00
2022-08-24T14:30:19.075Z,59.10
2022-08-24T14:33:00.447Z,54.60
2022-08-24T14:35:36.291Z,73.00
2022-08-24T14:38:24.392Z,54.30
2022-08-24T14:41:06.052Z,61.60
2022-08-24T14:44:07.938Z,73.20
2022-08-24T14:46:50.349Z,65.10
2022-08-24T14:49:24.602Z,80.70
2022-08-24T14:52:10.974Z,90.00
2022-08-24T14:55:16.083Z,85.60
2022-08-24T14:58:05.241Z,84.10
2022-08-24T15:01:11.558Z,78.30
2022-08-24T15:04:37.048Z,91.90
2022-08-24T15:07:25.767Z,94.20
2022-08-24T15:09:53.906Z,85.40
2022-08-24T15:12:27.426Z,83.30
2022-08-24T15:15:07.540Z,83.20
2022-08-24T15:18:15.646Z,82.60
2022-08-24T15:21:01.342Z,85.50
2022-08-24T15:23:53.103Z,78.00
2022-08-24T15:26:38.116Z,83.90
2022-08-24T15:29:21.086Z,81.40
2022-08-24T15:32:07.788Z,77.30
2022-08-24T15:34:49.460Z,81.00
2022-08-24T15:37:28.689Z,86.70
2022-08-24T15:39:55.443Z,90.30
2022-08-24T15:42:22.528Z,91.00
2022-08-24T15:44:50.763Z,90.50
2022-08-24T15:47:28.502Z,90.50
2022-08-24T15:49:58.459Z,90.00
2022-08-24T15:52:40.334Z,93.60
2022-08-24T15:55:14.883Z,91.00
2022-08-24T15:57:44.365Z,91.00
2022-08-24T16:00:43.901Z,81.20
2022-08-24T16:03:45.052Z,97.20
2022-08-24T16:06:19.858Z,91.80
2022-08-24T16:09:20.089Z,89.60
2022-08-24T16:12:09.940Z,93.50
2022-08-24T16:14:47.533Z,91.70
2022-08-24T16:17:26.423Z,92.60
2022-08-24T16:20:00.366Z,91.90
2022-08-24T16:22:30.237Z,91.10
2022-08-24T16:25:21.555Z,92.00
2022-08-24T16:27:54.005Z,92.20
2022-08-24T16:30:55.840Z,91.60
2022-08-24T16:33:34.604Z,91.40
2022-08-24T16:36:12.648Z,87.60
2022-08-24T16:38:46.179Z,90.00
2022-08-24T16:41:17.329Z,87.30
2022-08-24T16:43:45.695Z,81.20
2022-08-24T16:46:13.540Z,80.10
2022-08-24T16:48:40.852Z,84.90
2022-08-24T16:51:07.809Z,79.20
2022-08-24T16:53:35.266Z,81.10
2022-08-24T16:56:04.236Z,80.70
2022-08-24T16:58:33.310Z,90.80
2022-08-24T17:01:01.187Z,90.80
2022-08-24T17:03:29.247Z,85.50
2022-08-24T17:05:57.149Z,72.20
2022-08-24T17:08:24.748Z,73.70
2022-08-24T17:10:51.469Z,73.50
2022-08-24T17:13:39.330Z,78.20
2022-08-24T17:16:05.317Z,81.30
2022-08-24T17:18:33.802Z,81.00
2022-08-24T17:21:01.297Z,77.20
2022-08-24T17:23:28.070Z,76.00
2022-08-24T17:25:54.726Z,92.00
2022-08-24T17:28:21.553Z,86.10
2022-08-24T17:30:51.375Z,79.50
2022-08-24T17:33:18.604Z,80.80
2022-08-24T17:35:45.607Z,64.90
2022-08-24T17:38:12.371Z,85.90
2022-08-24T17:40:39.056Z,74.90
2022-08-24T17:43:05.879Z,76.90
2022-08-24T17:45:32.802Z,73.40
2022-08-24T17:47:59.547Z,71.40
2022-08-24T17:50:28.306Z,78.20
2022-08-24T17:52:56.443Z,56.50
2022-08-24T17:55:27.424Z,56.80
2022-08-24T17:57:54.217Z,59.60
2022-08-24T18:00:21.029Z,57.10
2022-08-24T18:02:47.689Z,56.70
2022-08-24T18:05:14.886Z,58.20
2022-08-24T18:07:55.374Z,57.10
2022-08-24T18:10:32.138Z,55.00
2022-08-24T18:13:01.224Z,54.80
2022-08-24T18:15:35.924Z,58.40
2022-08-24T18:18:05.754Z,77.20
2022-08-24T18:20:38.485Z,72.80
2022-08-24T18:23:05.326Z,68.80
2022-08-24T18:25:43.593Z,56.60
2022-08-24T18:28:10.391Z,57.10
2022-08-24T18:30:40.524Z,56.90
2022-08-24T18:33:08.488Z,57.50
2022-08-24T18:35:35.768Z,55.60
2022-08-24T18:38:02.416Z,59.40
2022-08-24T18:40:33.089Z,55.70
2022-08-24T18:43:01.973Z,70.80
2022-08-24T18:45:31.426Z,53.00
2022-08-24T18:47:58.561Z,53.10
2022-08-24T18:50:28.450Z,46.80
2022-08-24T18:52:56.393Z,52.20
2022-08-24T18:55:24.300Z,54.60
2022-08-24T18:57:51.997Z,57.80
2022-08-24T19:00:18.984Z,45.30
2022-08-24T19:02:45.803Z,67.80
2022-08-24T19:05:16.346Z,70.60
2022-08-24T19:07:47.065Z,68.90
2022-08-24T19:10:17.662Z,82.30
2022-08-24T19:12:51.513Z,78.40
2022-08-24T19:15:34.566Z,66.90
2022-08-24T19:18:05.778Z,72.50
2022-08-24T19:20:33.857Z,76.50
2022-08-24T19:23:07.797Z,66.50
2022-08-24T19:25:35.954Z,69.70
2022-08-24T19:28:03.281Z,68.50
2022-08-24T19:30:30.021Z,75.70
2022-08-24T19:32:57.770Z,62.10
2022-08-24T19:35:24.666Z,72.60
2022-08-24T19:37:51.423Z,82.60
2022-08-24T19:40:20.842Z,66.90
2022-08-24T19:42:50.761Z,70.30
2022-08-24T19:45:40.807Z,78.30
2022-08-24T19:48:07.825Z,85.50
2022-08-24T19:50:36.111Z,99.10
2022-08-24T19:53:04.759Z,98.00
2022-08-24T19:55:32.628Z,91.70
2022-08-24T19:58:23.709Z,96.50
2022-08-24T20:01:11.089Z,97.90
2022-08-24T20:03:38.058Z,94.30
2022-08-24T20:06:04.935Z,84.50
2022-08-24T20:08:31.726Z,91.60
2022-08-24T20:11:00.454Z,92.70
2022-08-24T20:13:27.676Z,95.10
2022-08-24T20:15:56.119Z,90.80
2022-08-24T20:18:32.122Z,93.90
2022-08-24T20:20:59.490Z,93.90
2022-08-24T20:23:27.228Z,97.20
2022-08-24T20:25:55.959Z,99.90
2022-08-24T20:28:29.052Z,99.90
2022-08-24T20:30:57.465Z,99.90
2022-08-24T20:33:24.752Z,99.90
2022-08-24T20:35:51.468Z,99.90
2022-08-24T20:38:19.906Z,99.90
2022-08-24T20:40:47.515Z,99.90
2022-08-24T20:43:14.537Z,99.90
2022-08-24T20:45:41.606Z,99.90
2022-08-24T20:48:11.921Z,99.90
2022-08-24T20:50:43.036Z,99.90
2022-08-24T20:53:11.263Z,99.90
2022-08-24T20:55:41.872Z,99.90
2022-08-24T20:58:09.413Z,99.90
2022-08-24T21:00:36.720Z,99.90
2022-08-24T21:03:03.849Z,99.90
2022-08-24T21:05:30.697Z,99.90
2022-08-24T21:07:57.918Z,99.90
2022-08-24T21:10:26.408Z,99.90
2022-08-24T21:12:54.147Z,99.90
2022-08-24T21:15:22.466Z,99.90
2022-08-24T21:17:49.265Z,99.90
2022-08-24T21:20:16.445Z,99.90
2022-08-24T21:22:46.023Z,99.90
2022-08-24T21:25:14.309Z,99.90
2022-08-24T21:27:43.917Z,99.90
2022-08-24T21:30:13.584Z,99.90
2022-08-24T21:32:59.129Z,99.90
2022-08-24T21:35:26.268Z,99.90
2022-08-24T21:37:53.109Z,99.90
2022-08-24T21:40:22.072Z,99.90
2022-08-24T21:42:49.768Z,99.90
2022-08-24T21:45:16.890Z,99.90
2022-08-24T21:47:43.892Z,99.90
2022-08-24T21:50:11.774Z,99.90
2022-08-24T21:52:38.532Z,99.90
2022-08-24T21:55:10.554Z,99.90
2022-08-24T21:57:40.050Z,99.90
2022-08-24T22:00:12.010Z,99.90
2022-08-24T22:02:38.938Z,99.90
2022-08-24T22:05:06.555Z,99.90
2022-08-24T22:07:33.434Z,99.90
2022-08-24T22:10:00.194Z,99.90
2022-08-24T22:12:26.881Z,99.90
2022-08-24T22:14:53.637Z,99.90
2022-08-24T22:17:20.259Z,99.90
2022-08-24T22:19:46.930Z,99.90
2022-08-24T22:22:13.606Z,99.90
2022-08-24T22:24:40.235Z,99.90
2022-08-24T22:27:07.216Z,99.90
2022-08-24T22:29:34.415Z,99.90
2022-08-24T22:32:01.193Z,99.90
2022-08-24T22:34:27.864Z,99.90
2022-08-24T22:36:56.936Z,99.90
2022-08-24T22:39:23.574Z,99.90
2022-08-24T22:41:50.499Z,99.90
2022-08-24T22:44:20.327Z,99.90
2022-08-24T22:46:50.202Z,99.90
2022-08-24T22:49:18.823Z,99.90
2022-08-24T22:51:46.029Z,99.90
2022-08-24T22:54:14.014Z,99.90
2022-08-24T22:56:44.633Z,99.90
2022-08-24T22:59:16.872Z,99.90
2022-08-24T23:01:45.357Z,99.90
2022-08-24T23:04:15.746Z,99.90
2022-08-24T23:06:42.745Z,99.90
2022-08-24T23:09:10.107Z,99.90
2022-08-24T23:11:37.162Z,99.90
2022-08-24T23:14:06.796Z,99.90
2022-08-24T23:16:35.522Z,99.90
2022-08-24T23:19:20.705Z,99.90
2022-08-24T23:21:47.401Z,99.90
2022-08-24T23:24:14.374Z,99.90
2022-08-24T23:26:42.049Z,99.90
2022-08-24T23:29:11.493Z,99.90
2022-08-24T23:31:39.112Z,99.90
2022-08-24T23:34:07.865Z,99.90
2022-08-24T23:36:36.183Z,99.90
2022-08-24T23:39:04.548Z,99.90
2022-08-24T23:41:33.373Z,99.90
2022-08-24T23:44:02.212Z,99.90
2022-08-24T23:46:29.545Z,99.90
2022-08-24T23:48:57.926Z,99.90
2022-08-24T23:51:27.248Z,99.90
2022-08-24T23:53:54.342Z,99.90
2022-08-24T23:56:31.801Z,99.90
2022-08-24T23:59:01.255Z,99.90
